createdAt,value
2023-05-12T00:00:21.475Z,3.88
2023-05-12T00:03:09.253Z,3.10
2023-05-12T00:06:00.336Z,3.25
2023-05-12T00:08:47.882Z,3.47
2023-05-12T00:11:35.307Z,3.90
2023-05-12T00:14:22.543Z,3.55
2023-05-12T00:17:10.011Z,3.42
2023-05-12T00:19:57.584Z,3.35
2023-05-12T00:22:46.204Z,3.45
2023-05-12T00:25:33.704Z,3.45
2023-05-12T00:28:22.546Z,3.90
2023-05-12T00:31:10.132Z,3.55
2023-05-12T00:33:57.965Z,3.78
2023-05-12T00:36:45.392Z,3.53
2023-05-12T00:39:34.282Z,3.90
2023-05-12T00:42:21.907Z,3.15
2023-05-12T00:45:10.034Z,3.33
2023-05-12T00:47:57.696Z,3.30
2023-05-12T00:50:45.420Z,3.40
2023-05-12T00:53:47.844Z,3.60
2023-05-12T00:56:39.620Z,3.72
2023-05-12T00:59:29.572Z,3.60
2023-05-12T01:02:17.184Z,3.97
2023-05-12T01:05:05.689Z,3.53
2023-05-12T01:07:53.699Z,3.65
2023-05-12T01:10:45.446Z,3.65
2023-05-12T01:13:37.612Z,3.65
2023-05-12T01:16:27.187Z,3.33
2023-05-12T01:19:20.911Z,3.33
2023-05-12T01:22:09.090Z,3.70
2023-05-12T01:24:57.081Z,3.60
2023-05-12T01:27:47.602Z,3.65
2023-05-12T01:30:35.604Z,3.33
2023-05-12T01:33:23.427Z,3.53
2023-05-12T01:36:10.807Z,3.42
2023-05-12T01:38:58.352Z,3.50
2023-05-12T01:41:46.240Z,3.58
2023-05-12T01:44:35.511Z,3.45
2023-05-12T01:47:23.358Z,3.30
2023-05-12T01:50:21.544Z,3.55
2023-05-12T01:53:10.604Z,3.47
2023-05-12T01:55:58.221Z,3.65
2023-05-12T01:58:47.571Z,3.30
2023-05-12T02:01:37.111Z,3.50
2023-05-12T02:04:24.994Z,4.18
2023-05-12T02:07:15.531Z,3.60
2023-05-12T02:10:03.972Z,3.40
2023-05-12T02:12:51.217Z,3.60
2023-05-12T02:15:38.587Z,3.58
2023-05-12T02:18:27.312Z,3.53
2023-05-12T02:21:15.969Z,3.53
2023-05-12T02:24:03.156Z,3.75
2023-05-12T02:26:51.977Z,3.50
2023-05-12T02:29:39.963Z,3.38
2023-05-12T02:32:28.629Z,3.65
2023-05-12T02:35:17.869Z,3.50
2023-05-12T02:38:05.906Z,3.63
2023-05-12T02:40:53.628Z,3.60
2023-05-12T02:43:42.201Z,4.00
2023-05-12T02:46:29.536Z,3.90
2023-05-12T02:49:17.111Z,3.90
2023-05-12T02:52:08.392Z,3.47
2023-05-12T02:54:57.473Z,3.70
2023-05-12T02:57:45.352Z,3.38
2023-05-12T03:00:32.958Z,3.63
2023-05-12T03:03:20.503Z,4.10
2023-05-12T03:06:08.232Z,4.00
2023-05-12T03:08:57.029Z,4.57
2023-05-12T03:11:44.468Z,4.25
2023-05-12T03:14:31.815Z,3.45
2023-05-12T03:17:19.865Z,3.80
2023-05-12T03:20:09.394Z,4.10
2023-05-12T03:22:57.765Z,3.80
2023-05-12T03:25:46.522Z,3.70
2023-05-12T03:28:34.378Z,3.83
2023-05-12T03:31:21.898Z,3.78
2023-05-12T03:34:09.591Z,4.05
2023-05-12T03:36:58.157Z,4.13
2023-05-12T03:39:45.596Z,4.05
2023-05-12T03:42:34.877Z,3.80
2023-05-12T03:45:22.395Z,4.32
2023-05-12T03:48:09.890Z,3.95
2023-05-12T03:50:57.701Z,3.97
2023-05-12T03:53:47.582Z,4.03
2023-05-12T03:56:35.528Z,4.22
2023-05-12T03:59:24.577Z,3.90
2023-05-12T04:02:13.165Z,4.35
2023-05-12T04:05:00.588Z,3.83
2023-05-12T04:07:48.386Z,3.75
2023-05-12T04:10:39.846Z,4.03
2023-05-12T04:13:27.591Z,3.95
2023-05-12T04:16:16.229Z,4.15
2023-05-12T04:19:04.065Z,4.28
2023-05-12T04:21:51.491Z,3.80
2023-05-12T04:24:39.456Z,4.13
2023-05-12T04:27:27.282Z,4.43
2023-05-12T04:30:15.578Z,4.32
2023-05-12T04:33:05.401Z,4.10
2023-05-12T04:35:57.048Z,4.07
2023-05-12T04:38:45.051Z,4.10
2023-05-12T04:41:32.974Z,4.35
2023-05-12T04:44:22.041Z,4.10
2023-05-12T04:47:10.663Z,4.45
2023-05-12T04:50:01.050Z,4.40
2023-05-12T04:52:48.805Z,4.30
2023-05-12T04:55:36.334Z,4.32
2023-05-12T04:58:24.269Z,4.57
2023-05-12T05:01:13.631Z,4.68
2023-05-12T05:04:01.548Z,4.38
2023-05-12T05:06:50.452Z,4.47
2023-05-12T05:09:38.351Z,4.63
2023-05-12T05:12:25.969Z,4.45
2023-05-12T05:15:13.668Z,4.47
2023-05-12T05:18:02.184Z,4.55
2023-05-12T05:20:57.367Z,4.60
2023-05-12T05:23:47.712Z,4.25
2023-05-12T05:26:35.963Z,4.25
2023-05-12T05:29:23.486Z,5.00
2023-05-12T05:32:11.471Z,4.22
2023-05-12T05:34:59.871Z,4.80
2023-05-12T05:37:47.399Z,4.15
2023-05-12T05:40:51.455Z,3.95
2023-05-12T05:43:40.084Z,4.47
2023-05-12T05:46:27.515Z,3.88
2023-05-12T05:49:15.907Z,3.88
2023-05-12T05:52:03.434Z,4.05
2023-05-12T05:54:51.373Z,3.90
2023-05-12T05:57:42.529Z,3.95
2023-05-12T06:00:30.238Z,4.32
2023-05-12T06:03:17.468Z,4.05
2023-05-12T06:06:05.661Z,3.90
2023-05-12T06:08:55.851Z,3.55
2023-05-12T06:11:43.416Z,3.53
2023-05-12T06:14:38.587Z,3.60
2023-05-12T06:17:26.474Z,4.00
2023-05-12T06:20:14.349Z,3.58
2023-05-12T06:23:01.907Z,3.90
2023-05-12T06:25:50.601Z,3.60
2023-05-12T06:28:37.926Z,3.85
2023-05-12T06:31:26.916Z,3.70
2023-05-12T06:34:14.371Z,3.55
2023-05-12T06:37:02.227Z,3.38
2023-05-12T06:39:50.995Z,3.65
2023-05-12T06:42:38.501Z,3.67
2023-05-12T06:45:29.913Z,3.45
2023-05-12T06:48:21.848Z,3.47
2023-05-12T06:51:09.631Z,3.83
2023-05-12T06:53:57.003Z,3.40
2023-05-12T06:56:44.728Z,3.25
2023-05-12T06:59:32.893Z,3.28
2023-05-12T07:02:20.634Z,3.78
2023-05-12T07:05:09.860Z,3.65
2023-05-12T07:07:57.169Z,3.50
2023-05-12T07:10:44.741Z,3.38
2023-05-12T07:13:32.650Z,3.30
2023-05-12T07:16:20.483Z,3.50
2023-05-12T07:19:08.982Z,3.22
2023-05-12T07:21:58.665Z,3.10
2023-05-12T07:24:46.004Z,3.95
2023-05-12T07:27:33.391Z,3.42
2023-05-12T07:30:22.423Z,4.22
2023-05-12T07:33:10.155Z,3.72
2023-05-12T07:35:57.707Z,3.28
2023-05-12T07:38:46.909Z,2.92
2023-05-12T07:41:34.647Z,3.03
2023-05-12T07:44:22.479Z,3.47
2023-05-12T07:47:10.287Z,3.10
2023-05-12T07:49:57.969Z,3.60
2023-05-12T07:52:49.313Z,3.20
2023-05-12T07:55:37.966Z,3.00
2023-05-12T07:58:25.655Z,3.28
2023-05-12T08:01:13.437Z,3.17
2023-05-12T08:04:00.987Z,3.22
2023-05-12T08:06:48.778Z,3.10
2023-05-12T08:09:36.110Z,2.60
2023-05-12T08:12:24.926Z,2.60
2023-05-12T08:15:12.604Z,2.75
2023-05-12T08:18:00.022Z,2.88
2023-05-12T08:20:47.388Z,2.55
2023-05-12T08:23:34.914Z,2.65
2023-05-12T08:26:22.520Z,2.90
2023-05-12T08:29:11.219Z,2.83
2023-05-12T08:31:59.265Z,3.00
2023-05-12T08:34:46.840Z,2.95
2023-05-12T08:37:34.909Z,2.97
2023-05-12T08:40:23.533Z,2.80
2023-05-12T08:43:15.210Z,2.75
2023-05-12T08:46:04.397Z,2.58
2023-05-12T08:48:52.412Z,2.70
2023-05-12T08:51:40.144Z,2.70
2023-05-12T08:54:28.484Z,2.28
2023-05-12T08:57:16.297Z,2.38
2023-05-12T09:00:05.229Z,2.40
2023-05-12T09:02:57.336Z,2.50
2023-05-12T09:05:45.251Z,2.50
2023-05-12T09:08:33.108Z,2.65
2023-05-12T09:11:22.545Z,2.20
2023-05-12T09:14:11.234Z,2.40
2023-05-12T09:17:01.920Z,2.20
2023-05-12T09:19:50.774Z,2.58
2023-05-12T09:22:39.370Z,2.03
2023-05-12T09:25:26.898Z,2.72
2023-05-12T09:28:14.528Z,2.67
2023-05-12T09:31:02.287Z,2.50
2023-05-12T09:33:49.674Z,2.40
2023-05-12T09:36:38.672Z,3.50
2023-05-12T09:39:26.677Z,2.58
2023-05-12T09:42:14.235Z,2.33
2023-05-12T09:45:01.968Z,2.30
2023-05-12T09:47:49.660Z,2.20
2023-05-12T09:50:46.522Z,2.38
2023-05-12T09:53:43.400Z,2.15
2023-05-12T09:56:33.711Z,2.38
2023-05-12T09:59:26.618Z,1.95
2023-05-12T10:02:16.380Z,2.30
2023-05-12T10:05:04.901Z,2.40
2023-05-12T10:07:53.072Z,2.38
2023-05-12T10:10:42.401Z,2.30
2023-05-12T10:13:30.062Z,2.53
2023-05-12T10:16:17.923Z,2.50
2023-05-12T10:19:05.615Z,2.33
2023-05-12T10:21:53.206Z,2.50
2023-05-12T10:24:41.331Z,2.17
2023-05-12T10:27:30.982Z,2.60
2023-05-12T10:30:18.634Z,3.15
2023-05-12T10:33:08.422Z,3.03
2023-05-12T10:35:56.382Z,2.50
2023-05-12T10:38:44.060Z,2.50
2023-05-12T10:41:31.931Z,2.47
2023-05-12T10:44:29.492Z,2.78
2023-05-12T10:47:17.304Z,2.80
2023-05-12T10:50:04.639Z,3.22
2023-05-12T10:52:55.088Z,2.78
2023-05-12T10:55:50.230Z,2.65
2023-05-12T10:58:38.599Z,2.50
2023-05-12T11:01:27.738Z,2.72
2023-05-12T11:04:16.823Z,2.38
2023-05-12T11:07:06.301Z,2.42
2023-05-12T11:09:59.376Z,2.97
2023-05-12T11:12:49.545Z,2.50
2023-05-12T11:15:36.845Z,2.47
2023-05-12T11:18:25.728Z,2.22
2023-05-12T11:21:13.674Z,2.40
2023-05-12T11:24:01.309Z,2.40
2023-05-12T11:26:51.769Z,2.88
2023-05-12T11:29:40.043Z,2.10
2023-05-12T11:32:28.036Z,2.50
2023-05-12T11:35:19.377Z,2.50
2023-05-12T11:38:16.356Z,2.30
2023-05-12T11:41:03.954Z,1.90
2023-05-12T11:43:51.492Z,1.90
2023-05-12T11:46:38.806Z,2.20
2023-05-12T11:49:26.470Z,2.67
2023-05-12T11:52:15.768Z,2.58
2023-05-12T11:55:06.071Z,2.60
2023-05-12T11:58:00.774Z,2.40
2023-05-12T12:00:48.963Z,2.13
2023-05-12T12:03:49.733Z,2.35
2023-05-12T12:06:45.039Z,2.00
2023-05-12T12:09:34.379Z,2.22
2023-05-12T12:12:21.773Z,1.95
2023-05-12T12:15:09.875Z,2.20
2023-05-12T12:17:57.557Z,2.30
2023-05-12T12:20:45.092Z,2.25
2023-05-12T12:23:40.614Z,2.50
2023-05-12T12:26:38.347Z,2.17
2023-05-12T12:29:28.388Z,2.65
2023-05-12T12:32:16.547Z,2.30
2023-05-12T12:35:06.482Z,1.88
2023-05-12T12:37:54.028Z,2.83
2023-05-12T12:40:41.464Z,2.45
2023-05-12T12:43:30.312Z,2.42
2023-05-12T12:46:17.992Z,2.30
2023-05-12T12:49:05.735Z,2.22
2023-05-12T12:51:53.101Z,2.20
2023-05-12T12:54:40.492Z,2.08
2023-05-12T12:57:27.727Z,2.40
2023-05-12T13:00:17.332Z,2.05
2023-05-12T13:03:04.986Z,2.53
2023-05-12T13:05:52.908Z,2.10
2023-05-12T13:08:40.819Z,2.00
2023-05-12T13:11:28.184Z,2.00
2023-05-12T13:14:15.999Z,2.33
2023-05-12T13:17:05.289Z,2.22
2023-05-12T13:19:53.256Z,2.10
2023-05-12T13:22:40.775Z,2.13
2023-05-12T13:25:28.167Z,2.08
2023-05-12T13:28:15.697Z,2.13
2023-05-12T13:31:03.035Z,2.00
2023-05-12T13:33:51.692Z,2.00
2023-05-12T13:36:40.033Z,2.35
2023-05-12T13:39:29.246Z,2.30
2023-05-12T13:42:17.098Z,2.20
2023-05-12T13:45:04.848Z,2.00
2023-05-12T13:47:52.490Z,2.50
2023-05-12T13:50:41.124Z,1.90
2023-05-12T13:53:28.707Z,2.33
2023-05-12T13:56:16.994Z,2.22
2023-05-12T13:59:04.914Z,1.90
2023-05-12T14:01:52.628Z,2.30
2023-05-12T14:04:40.122Z,2.42
2023-05-12T14:07:29.232Z,1.83
2023-05-12T14:10:19.461Z,2.00
2023-05-12T14:13:08.502Z,2.10
2023-05-12T14:15:56.680Z,2.00
2023-05-12T14:18:45.088Z,2.35
2023-05-12T14:21:35.734Z,2.00
2023-05-12T14:24:25.489Z,2.10
2023-05-12T14:27:13.922Z,1.98
2023-05-12T14:30:01.706Z,1.90
2023-05-12T14:32:49.121Z,1.98
2023-05-12T14:35:36.733Z,1.90
2023-05-12T14:38:24.670Z,2.47
2023-05-12T14:41:16.437Z,2.25
2023-05-12T14:44:04.364Z,2.15
2023-05-12T14:46:52.060Z,2.40
2023-05-12T14:49:39.667Z,2.35
2023-05-12T14:52:27.718Z,2.58
2023-05-12T14:55:17.058Z,2.50
2023-05-12T14:58:05.805Z,2.40
2023-05-12T15:00:53.889Z,3.35
2023-05-12T15:03:43.775Z,2.00
2023-05-12T15:06:32.009Z,1.80
2023-05-12T15:09:19.816Z,2.15
2023-05-12T15:12:09.274Z,2.35
2023-05-12T15:15:01.194Z,2.15
2023-05-12T15:17:49.000Z,2.20
2023-05-12T15:20:36.993Z,2.03
2023-05-12T15:23:24.440Z,2.20
2023-05-12T15:29:02.669Z,2.78
2023-05-12T15:31:51.512Z,1.88
2023-05-12T15:34:39.118Z,2.20
2023-05-12T15:37:26.493Z,2.17
2023-05-12T15:40:14.040Z,2.33
2023-05-12T15:43:01.508Z,2.25
2023-05-12T15:45:48.767Z,2.20
2023-05-12T15:48:37.460Z,2.22
2023-05-12T15:51:24.710Z,2.00
2023-05-12T15:54:12.512Z,2.00
2023-05-12T15:57:01.716Z,1.92
2023-05-12T15:59:50.160Z,2.13
2023-05-12T16:02:38.102Z,2.13
2023-05-12T16:05:26.670Z,1.98
2023-05-12T16:08:14.530Z,2.00
2023-05-12T16:11:02.387Z,2.10
2023-05-12T16:13:49.791Z,2.15
2023-05-12T16:16:37.476Z,2.22
2023-05-12T16:19:24.690Z,2.03
2023-05-12T16:22:14.347Z,2.08
2023-05-12T16:25:01.602Z,2.20
2023-05-12T16:27:49.500Z,2.35
2023-05-12T16:30:37.015Z,2.33
2023-05-12T16:33:24.747Z,2.08
2023-05-12T16:36:12.937Z,2.15
2023-05-12T16:39:01.667Z,2.08
2023-05-12T16:41:49.362Z,2.40
2023-05-12T16:44:36.774Z,2.67
2023-05-12T16:47:24.092Z,2.30
2023-05-12T16:50:11.723Z,2.10
2023-05-12T16:52:59.319Z,1.83
2023-05-12T16:55:48.193Z,2.15
2023-05-12T16:58:35.843Z,2.58
2023-05-12T17:01:23.305Z,2.05
2023-05-12T17:04:12.371Z,2.67
2023-05-12T17:07:00.160Z,2.22
2023-05-12T17:09:47.406Z,2.35
2023-05-12T17:12:36.749Z,2.30
2023-05-12T17:15:24.522Z,2.20
2023-05-12T17:18:12.758Z,2.20
2023-05-12T17:21:00.285Z,2.20
2023-05-12T17:23:48.216Z,2.42
2023-05-12T17:26:35.915Z,2.25
2023-05-12T17:29:24.657Z,2.40
2023-05-12T17:32:12.358Z,2.28
2023-05-12T17:34:59.708Z,2.20
2023-05-12T17:37:47.857Z,2.60
2023-05-12T17:40:35.714Z,2.70
2023-05-12T17:43:23.371Z,2.42
2023-05-12T17:46:12.290Z,2.20
2023-05-12T17:48:59.937Z,2.25
2023-05-12T17:51:49.349Z,2.33
2023-05-12T17:54:37.026Z,3.20
2023-05-12T17:57:24.472Z,2.13
2023-05-12T18:00:12.722Z,2.20
2023-05-12T18:03:04.516Z,1.95
2023-05-12T18:05:52.154Z,2.17
2023-05-12T18:08:39.884Z,1.90
2023-05-12T18:11:29.122Z,2.25
2023-05-12T18:14:16.751Z,2.30
2023-05-12T18:17:04.484Z,2.30
2023-05-12T18:19:53.205Z,2.20
2023-05-12T18:22:41.029Z,1.95
2023-05-12T18:25:28.510Z,2.15
2023-05-12T18:28:16.152Z,2.10
2023-05-12T18:31:15.075Z,2.20
2023-05-12T18:34:04.336Z,2.40
2023-05-12T18:36:54.152Z,2.00
2023-05-12T18:39:41.580Z,1.88
2023-05-12T18:42:29.827Z,2.30
2023-05-12T18:45:18.527Z,2.03
2023-05-12T18:48:06.775Z,2.40
2023-05-12T18:50:54.540Z,2.40
2023-05-12T18:53:43.443Z,2.22
2023-05-12T18:56:31.125Z,2.58
2023-05-12T18:59:18.532Z,2.30
2023-05-12T19:02:06.403Z,2.40
2023-05-12T19:04:54.916Z,2.30
2023-05-12T19:07:42.416Z,2.45
2023-05-12T19:10:31.127Z,2.35
2023-05-12T19:13:18.725Z,2.60
2023-05-12T19:16:06.666Z,2.45
2023-05-12T19:18:54.297Z,2.33
2023-05-12T19:21:42.380Z,2.30
2023-05-12T19:24:30.107Z,2.55
2023-05-12T19:27:18.848Z,2.70
2023-05-12T19:30:06.911Z,2.38
2023-05-12T19:32:54.454Z,2.58
2023-05-12T19:35:42.244Z,2.67
2023-05-12T19:38:29.501Z,2.60
2023-05-12T19:41:16.818Z,2.78
2023-05-12T19:44:05.655Z,2.92
2023-05-12T19:46:53.527Z,2.63
2023-05-12T19:49:41.026Z,2.80
2023-05-12T19:52:30.588Z,3.05
2023-05-12T19:55:19.673Z,3.05
2023-05-12T19:58:08.889Z,3.47
2023-05-12T20:00:57.883Z,3.13
2023-05-12T20:03:45.610Z,3.10
2023-05-12T20:06:32.908Z,2.70
2023-05-12T20:09:21.957Z,2.67
2023-05-12T20:12:09.838Z,2.58
2023-05-12T20:14:57.161Z,2.85
2023-05-12T20:17:46.541Z,3.00
2023-05-12T20:20:34.100Z,2.88
2023-05-12T20:23:21.584Z,3.08
2023-05-12T20:26:09.953Z,3.20
2023-05-12T20:28:57.204Z,3.58
2023-05-12T20:31:44.834Z,2.90
2023-05-12T20:34:34.441Z,3.03
2023-05-12T20:37:22.304Z,2.92
2023-05-12T20:40:10.727Z,3.30
2023-05-12T20:42:58.441Z,3.13
2023-05-12T20:45:45.866Z,3.00
2023-05-12T20:48:33.475Z,3.22
2023-05-12T20:51:22.226Z,3.25
2023-05-12T20:54:10.025Z,2.90
2023-05-12T20:56:57.694Z,3.10
2023-05-12T20:59:45.348Z,2.80
2023-05-12T21:02:32.971Z,2.75
2023-05-12T21:05:20.744Z,2.88
2023-05-12T21:08:09.931Z,2.90
2023-05-12T21:10:58.775Z,2.90
2023-05-12T21:13:46.951Z,3.33
2023-05-12T21:16:34.353Z,3.25
2023-05-12T21:19:21.926Z,3.42
2023-05-12T21:22:10.447Z,3.13
2023-05-12T21:24:59.322Z,3.50
2023-05-12T21:27:47.589Z,3.47
2023-05-12T21:30:36.775Z,3.13
2023-05-12T21:33:25.356Z,3.38
2023-05-12T21:36:13.020Z,3.08
2023-05-12T21:39:00.497Z,3.47
2023-05-12T21:41:49.442Z,3.53
2023-05-12T21:44:37.114Z,3.47
2023-05-12T21:47:24.312Z,3.40
2023-05-12T21:50:12.268Z,3.17
2023-05-12T21:52:59.650Z,3.20
2023-05-12T21:55:46.994Z,3.70
2023-05-12T21:58:35.591Z,3.30
2023-05-12T22:01:23.337Z,3.00
2023-05-12T22:04:10.975Z,3.05
2023-05-12T22:06:58.695Z,2.90
2023-05-12T22:09:46.072Z,3.10
2023-05-12T22:12:33.465Z,3.10
2023-05-12T22:15:22.412Z,2.78
2023-05-12T22:18:10.216Z,2.88
2023-05-12T22:20:57.511Z,3.80
2023-05-12T22:23:44.971Z,3.35
2023-05-12T22:26:32.827Z,2.83
2023-05-12T22:29:20.494Z,3.45
2023-05-12T22:32:09.456Z,3.17
2023-05-12T22:34:56.993Z,3.15
2023-05-12T22:37:44.476Z,2.90
2023-05-12T22:40:32.833Z,2.95
2023-05-12T22:43:20.524Z,3.08
2023-05-12T22:46:09.623Z,3.55
2023-05-12T22:48:58.862Z,3.05
2023-05-12T22:51:46.536Z,3.00
2023-05-12T22:54:33.947Z,3.08
2023-05-12T22:57:21.357Z,2.95
2023-05-12T23:00:09.713Z,3.75
2023-05-12T23:02:57.300Z,3.10
2023-05-12T23:05:45.895Z,4.30
2023-05-12T23:08:33.550Z,3.10
2023-05-12T23:11:21.052Z,3.28
2023-05-12T23:14:08.837Z,3.28
2023-05-12T23:16:56.386Z,3.40
2023-05-12T23:19:43.750Z,3.38
2023-05-12T23:22:32.625Z,3.50
2023-05-12T23:25:20.085Z,3.60
2023-05-12T23:28:07.826Z,3.20
2023-05-12T23:30:55.202Z,3.22
2023-05-12T23:33:42.767Z,3.60
2023-05-12T23:36:31.264Z,3.55
2023-05-12T23:39:20.333Z,3.42
2023-05-12T23:42:08.369Z,3.90
2023-05-12T23:44:56.088Z,3.30
2023-05-12T23:47:44.051Z,3.13
2023-05-12T23:50:31.345Z,3.40
2023-05-12T23:53:19.190Z,3.28
2023-05-12T23:56:08.765Z,3.40
2023-05-12T23:58:56.332Z,3.30
